createdAt,value
2022-11-14T00:02:02.832Z,1023.11
2022-11-14T00:04:14.951Z,1023.07
2022-11-14T00:06:27.944Z,1023.09
2022-11-14T00:08:39.078Z,1023.06
2022-11-14T00:10:51.176Z,1023.07
2022-11-14T00:13:04.744Z,1023.04
2022-11-14T00:15:17.866Z,1023.02
2022-11-14T00:17:29.915Z,1022.98
2022-11-14T00:19:42.000Z,1022.96
2022-11-14T00:21:54.108Z,1022.97
2022-11-14T00:24:06.177Z,1022.93
2022-11-14T00:26:18.300Z,1022.91
2022-11-14T00:28:31.600Z,1022.92
2022-11-14T00:30:43.422Z,1022.86
2022-11-14T00:32:55.524Z,1022.88
2022-11-14T00:35:07.601Z,1022.86
2022-11-14T00:37:19.686Z,1022.84
2022-11-14T00:39:31.764Z,1022.77
2022-11-14T00:41:43.857Z,1022.80
2022-11-14T00:43:55.928Z,1022.79
2022-11-14T00:46:08.011Z,1022.74
2022-11-14T00:48:20.107Z,1022.71
2022-11-14T00:50:32.167Z,1022.74
2022-11-14T00:52:44.249Z,1022.72
2022-11-14T00:54:56.334Z,1022.66
2022-11-14T00:57:08.408Z,1022.66
2022-11-14T00:59:20.522Z,1022.67
2022-11-14T01:01:32.586Z,1022.61
2022-11-14T01:03:44.645Z,1022.55
2022-11-14T01:05:57.564Z,1022.52
2022-11-14T01:08:09.790Z,1022.48
2022-11-14T01:10:21.896Z,1022.52
2022-11-14T01:12:33.966Z,1022.47
2022-11-14T01:14:46.043Z,1022.49
2022-11-14T01:16:59.114Z,1022.44
2022-11-14T01:19:11.185Z,1022.43
2022-11-14T01:21:23.304Z,1022.43
2022-11-14T01:23:35.379Z,1022.38
2022-11-14T01:25:47.466Z,1022.44
2022-11-14T01:27:59.553Z,1022.34
2022-11-14T01:30:11.644Z,1022.30
2022-11-14T01:32:23.749Z,1022.29
2022-11-14T01:34:35.793Z,1022.24
2022-11-14T01:36:47.873Z,1022.20
2022-11-14T01:38:59.963Z,1022.22
2022-11-14T01:41:12.039Z,1022.19
2022-11-14T01:43:24.151Z,1022.17
2022-11-14T01:45:36.194Z,1022.19
2022-11-14T01:47:48.284Z,1022.09
2022-11-14T01:50:00.372Z,1022.13
2022-11-14T01:52:12.437Z,1022.06
2022-11-14T01:54:24.547Z,1022.05
2022-11-14T01:56:36.609Z,1021.99
2022-11-14T01:58:49.669Z,1021.97
2022-11-14T02:01:01.827Z,1021.91
2022-11-14T02:03:13.837Z,1021.92
2022-11-14T02:05:25.953Z,1021.91
2022-11-14T02:07:38.131Z,1021.83
2022-11-14T02:09:50.079Z,1021.80
2022-11-14T02:12:02.154Z,1021.75
2022-11-14T02:14:14.289Z,1021.74
2022-11-14T02:16:26.393Z,1021.69
2022-11-14T02:18:38.441Z,1021.66
2022-11-14T02:20:50.547Z,1021.61
2022-11-14T02:23:02.613Z,1021.58
2022-11-14T02:25:14.682Z,1021.58
2022-11-14T02:27:26.795Z,1021.54
2022-11-14T02:29:38.856Z,1021.54
2022-11-14T02:31:50.924Z,1021.61
2022-11-14T02:34:03.020Z,1021.60
2022-11-14T02:36:15.087Z,1021.62
2022-11-14T02:38:27.503Z,1021.64
2022-11-14T02:40:39.263Z,1021.56
2022-11-14T02:42:51.342Z,1021.55
2022-11-14T02:45:03.442Z,1021.51
2022-11-14T02:47:15.522Z,1021.47
2022-11-14T02:49:27.608Z,1021.43
2022-11-14T02:51:39.670Z,1021.42
2022-11-14T02:53:51.755Z,1021.38
2022-11-14T02:56:03.841Z,1021.38
2022-11-14T02:58:15.908Z,1021.38
2022-11-14T03:00:28.062Z,1021.35
2022-11-14T03:02:40.118Z,1021.33
2022-11-14T03:04:52.189Z,1021.28
2022-11-14T03:07:04.315Z,1021.29
2022-11-14T03:09:16.365Z,1021.28
2022-11-14T03:11:28.459Z,1021.28
2022-11-14T03:13:40.520Z,1021.29
2022-11-14T03:15:52.594Z,1021.21
2022-11-14T03:18:04.694Z,1021.23
2022-11-14T03:20:16.763Z,1021.20
2022-11-14T03:22:28.885Z,1021.14
2022-11-14T03:24:40.948Z,1021.10
2022-11-14T03:26:53.017Z,1021.11
2022-11-14T03:29:05.110Z,1021.09
2022-11-14T03:31:17.200Z,1021.13
2022-11-14T03:33:29.287Z,1021.14
2022-11-14T03:35:41.354Z,1021.15
2022-11-14T03:37:56.332Z,1021.16
2022-11-14T03:40:05.512Z,1021.14
2022-11-14T03:42:17.581Z,1020.99
2022-11-14T03:44:29.693Z,1021.02
2022-11-14T03:46:41.756Z,1020.95
2022-11-14T03:48:53.838Z,1020.95
2022-11-14T03:51:05.941Z,1020.93
2022-11-14T03:53:18.024Z,1020.91
2022-11-14T03:55:30.134Z,1020.91
2022-11-14T03:57:42.196Z,1020.88
2022-11-14T03:59:54.297Z,1020.87
2022-11-14T04:02:06.362Z,1020.88
2022-11-14T04:04:19.438Z,1020.82
2022-11-14T04:06:31.700Z,1020.87
2022-11-14T04:08:43.597Z,1020.80
2022-11-14T04:10:55.688Z,1020.78
2022-11-14T04:13:07.766Z,1020.76
2022-11-14T04:15:19.850Z,1020.69
2022-11-14T04:17:38.552Z,1020.71
2022-11-14T04:19:45.008Z,1020.67
2022-11-14T04:21:59.073Z,1020.69
2022-11-14T04:24:11.451Z,1020.65
2022-11-14T04:26:23.240Z,1020.66
2022-11-14T04:28:35.342Z,1020.66
2022-11-14T04:30:49.418Z,1020.69
2022-11-14T04:33:00.550Z,1020.58
2022-11-14T04:35:12.746Z,1020.57
2022-11-14T04:37:24.824Z,1020.62
2022-11-14T04:39:37.941Z,1020.60
2022-11-14T04:41:51.028Z,1020.58
2022-11-14T04:44:03.109Z,1020.59
2022-11-14T04:46:15.186Z,1020.55
2022-11-14T04:48:27.483Z,1020.60
2022-11-14T04:50:39.372Z,1020.51
2022-11-14T04:52:51.436Z,1020.50
2022-11-14T04:55:03.687Z,1020.48
2022-11-14T04:57:15.596Z,1020.43
2022-11-14T04:59:27.673Z,1020.46
2022-11-14T05:01:40.206Z,1020.47
2022-11-14T05:03:51.832Z,1020.44
2022-11-14T05:06:04.497Z,1020.43
2022-11-14T05:08:16.017Z,1020.43
2022-11-14T05:10:29.085Z,1020.45
2022-11-14T05:12:42.198Z,1020.45
2022-11-14T05:14:54.422Z,1020.49
2022-11-14T05:17:06.461Z,1020.44
2022-11-14T05:19:18.547Z,1020.36
2022-11-14T05:21:31.694Z,1020.35
2022-11-14T05:23:42.732Z,1020.35
2022-11-14T05:25:58.754Z,1020.33
2022-11-14T05:28:06.867Z,1020.28
2022-11-14T05:30:18.939Z,1020.27
2022-11-14T05:32:31.032Z,1020.29
2022-11-14T05:34:43.119Z,1020.25
2022-11-14T05:36:55.190Z,1020.27
2022-11-14T05:39:07.273Z,1020.26
2022-11-14T05:41:19.343Z,1020.21
2022-11-14T05:43:32.443Z,1020.18
2022-11-14T05:45:44.536Z,1020.19
2022-11-14T05:47:56.599Z,1020.19
2022-11-14T05:50:08.682Z,1020.17
2022-11-14T05:52:20.759Z,1020.13
2022-11-14T05:54:32.838Z,1020.20
2022-11-14T05:56:44.965Z,1020.18
2022-11-14T05:58:58.986Z,1020.07
2022-11-14T06:01:12.112Z,1020.05
2022-11-14T06:03:24.170Z,1020.04
2022-11-14T06:05:36.254Z,1020.01
2022-11-14T06:07:48.360Z,1020.05
2022-11-14T06:10:00.434Z,1020.10
2022-11-14T06:12:12.505Z,1020.11
2022-11-14T06:14:24.593Z,1020.14
2022-11-14T06:16:36.784Z,1020.20
2022-11-14T06:18:48.890Z,1020.12
2022-11-14T06:21:00.952Z,1020.13
2022-11-14T06:23:13.020Z,1020.09
2022-11-14T06:25:25.107Z,1020.10
2022-11-14T06:27:37.181Z,1020.11
2022-11-14T06:29:49.298Z,1020.05
2022-11-14T06:32:01.359Z,1020.04
2022-11-14T06:34:13.437Z,1020.03
2022-11-14T06:36:25.527Z,1020.04
2022-11-14T06:38:37.609Z,1020.03
2022-11-14T06:40:49.713Z,1020.03
2022-11-14T06:43:01.764Z,1019.99
2022-11-14T06:45:13.851Z,1019.98
2022-11-14T06:47:25.942Z,1019.98
2022-11-14T06:49:40.687Z,1019.99
2022-11-14T06:51:50.113Z,1020.03
2022-11-14T06:54:02.183Z,1020.04
2022-11-14T06:56:14.262Z,1020.03
2022-11-14T06:58:26.344Z,1020.05
2022-11-14T07:00:38.412Z,1020.11
2022-11-14T07:02:50.635Z,1020.13
2022-11-14T07:05:02.666Z,1020.12
2022-11-14T07:07:14.807Z,1020.12
2022-11-14T07:13:34.601Z,1020.16
2022-11-14T07:15:46.652Z,1020.09
2022-11-14T07:17:58.730Z,1020.13
2022-11-14T07:20:10.834Z,1020.07
2022-11-14T07:22:22.905Z,1020.11
2022-11-14T07:24:35.010Z,1020.01
2022-11-14T07:26:47.914Z,1020.00
2022-11-14T07:29:02.466Z,1020.02
2022-11-14T07:31:11.253Z,1019.98
2022-11-14T07:33:24.341Z,1019.95
2022-11-14T07:35:36.433Z,1020.00
2022-11-14T07:37:48.500Z,1019.97
2022-11-14T07:40:00.600Z,1019.91
2022-11-14T07:42:13.685Z,1019.90
2022-11-14T07:44:25.763Z,1019.86
2022-11-14T07:46:37.870Z,1019.92
2022-11-14T07:48:49.927Z,1019.89
2022-11-14T07:51:02.030Z,1019.83
2022-11-14T07:53:14.110Z,1019.86
2022-11-14T07:55:26.356Z,1019.83
2022-11-14T07:57:41.846Z,1019.76
2022-11-14T07:59:58.880Z,1019.69
2022-11-14T08:02:19.792Z,1019.70
2022-11-14T08:04:40.959Z,1019.65
2022-11-14T08:06:58.115Z,1019.69
2022-11-14T08:09:15.651Z,1019.65
2022-11-14T08:11:36.222Z,1019.64
2022-11-14T08:13:56.868Z,1019.64
2022-11-14T08:16:18.036Z,1019.61
2022-11-14T08:18:34.694Z,1019.56
2022-11-14T08:21:26.020Z,1019.59
2022-11-14T08:23:47.235Z,1019.67
2022-11-14T08:26:07.904Z,1019.58
2022-11-14T08:28:24.483Z,1019.54
2022-11-14T08:30:45.110Z,1019.62
2022-11-14T08:33:05.631Z,1019.58
2022-11-14T08:35:26.801Z,1019.58
2022-11-14T08:37:47.425Z,1019.61
2022-11-14T08:40:08.471Z,1019.58
2022-11-14T08:42:26.436Z,1019.48
2022-11-14T08:44:47.951Z,1019.45
2022-11-14T08:47:01.491Z,1019.41
2022-11-14T08:49:21.432Z,1019.47
2022-11-14T08:51:38.144Z,1019.43
2022-11-14T08:53:58.814Z,1019.42
2022-11-14T08:56:16.887Z,1019.37
2022-11-14T08:58:34.827Z,1019.37
2022-11-14T09:00:55.577Z,1019.32
2022-11-14T09:03:16.738Z,1019.29
2022-11-14T09:05:37.159Z,1019.34
2022-11-14T09:07:53.732Z,1019.35
2022-11-14T09:10:11.948Z,1019.38
2022-11-14T09:12:32.545Z,1019.36
2022-11-14T09:14:53.177Z,1019.36
2022-11-14T09:17:11.403Z,1019.40
2022-11-14T09:19:31.817Z,1019.33
2022-11-14T09:21:48.284Z,1019.35
2022-11-14T09:24:06.536Z,1019.30
2022-11-14T09:26:23.075Z,1019.31
2022-11-14T09:28:41.162Z,1019.24
2022-11-14T09:30:59.465Z,1019.26
2022-11-14T09:33:17.613Z,1019.32
2022-11-14T09:35:37.872Z,1019.33
2022-11-14T09:37:58.382Z,1019.25
2022-11-14T09:40:35.872Z,1019.38
2022-11-14T09:42:54.135Z,1019.37
2022-11-14T09:45:14.477Z,1019.40
2022-11-14T09:47:33.959Z,1019.31
2022-11-14T09:49:52.073Z,1019.33
2022-11-14T09:52:12.307Z,1019.34
2022-11-14T09:54:30.117Z,1019.30
2022-11-14T09:56:50.949Z,1019.19
2022-11-14T09:59:05.876Z,1019.19
2022-11-14T10:01:55.025Z,1019.09
2022-11-14T10:04:16.151Z,1019.03
2022-11-14T10:06:33.163Z,1018.98
2022-11-14T10:08:49.746Z,1018.99
2022-11-14T10:11:12.956Z,1018.96
2022-11-14T10:14:34.812Z,1018.95
2022-11-14T10:17:13.266Z,1018.84
2022-11-14T10:19:30.718Z,1018.85
2022-11-14T10:21:48.024Z,1018.83
2022-11-14T10:24:08.613Z,1018.89
2022-11-14T10:26:25.905Z,1018.88
2022-11-14T10:28:48.723Z,1018.77
2022-11-14T10:31:03.256Z,1018.76
2022-11-14T10:33:29.856Z,1018.66
2022-11-14T10:35:50.469Z,1018.58
2022-11-14T10:48:37.542Z,1018.50
2022-11-14T10:54:57.433Z,1018.48
2022-11-14T10:58:02.704Z,1018.56
2022-11-14T11:01:09.690Z,1018.45
2022-11-14T11:04:02.313Z,1018.43
2022-11-14T11:06:42.896Z,1018.41
2022-11-14T11:09:26.431Z,1018.36
2022-11-14T11:11:47.222Z,1018.32
2022-11-14T11:14:03.807Z,1018.35
2022-11-14T11:16:47.967Z,1018.30
2022-11-14T11:19:17.291Z,1018.22
2022-11-14T11:21:35.016Z,1018.17
2022-11-14T11:24:04.151Z,1018.10
2022-11-14T11:26:22.238Z,1018.00
2022-11-14T11:28:54.841Z,1018.02
2022-11-14T11:31:26.872Z,1018.06
2022-11-14T11:33:44.035Z,1018.15
2022-11-14T11:36:04.675Z,1018.08
2022-11-14T11:38:38.874Z,1018.04
2022-11-14T11:40:56.547Z,1018.01
2022-11-14T11:43:38.735Z,1017.95
2022-11-14T11:44:18.250Z,1017.98
2022-11-14T11:46:35.276Z,1017.95
2022-11-14T11:49:15.891Z,1017.85
2022-11-14T11:51:57.744Z,1017.80
2022-11-14T11:54:33.553Z,1017.76
2022-11-14T11:56:51.094Z,1017.74
2022-11-14T11:59:42.057Z,1017.69
2022-11-14T12:02:37.558Z,1017.78
2022-11-14T12:06:29.716Z,1017.81
2022-11-14T12:09:10.847Z,1017.86
2022-11-14T12:12:42.909Z,1017.86
2022-11-14T12:15:14.357Z,1017.86
2022-11-14T12:18:24.932Z,1017.94
2022-11-14T12:23:15.837Z,1017.92
2022-11-14T12:25:44.005Z,1017.88
2022-11-14T12:29:10.398Z,1017.85
2022-11-14T12:31:30.574Z,1017.92
2022-11-14T12:33:47.418Z,1017.84
2022-11-14T12:37:17.099Z,1017.80
2022-11-14T12:40:14.460Z,1017.80
2022-11-14T12:42:35.088Z,1017.78
2022-11-14T12:45:13.469Z,1017.72
2022-11-14T12:47:42.299Z,1017.74
2022-11-14T12:50:03.822Z,1017.69
2022-11-14T12:52:23.755Z,1017.68
2022-11-14T12:54:45.009Z,1017.65
2022-11-14T12:57:03.822Z,1017.69
2022-11-14T12:59:22.823Z,1017.65
2022-11-14T13:01:44.613Z,1017.67
2022-11-14T13:04:01.525Z,1017.65
2022-11-14T13:06:20.222Z,1017.65
2022-11-14T13:08:37.285Z,1017.64
2022-11-14T13:11:00.743Z,1017.54
2022-11-14T13:13:16.136Z,1017.58
2022-11-14T13:15:49.208Z,1017.58
2022-11-14T13:18:06.450Z,1017.54
2022-11-14T13:20:27.333Z,1017.54
2022-11-14T13:22:47.591Z,1017.52
2022-11-14T13:25:05.715Z,1017.42
2022-11-14T13:27:39.215Z,1017.41
2022-11-14T13:28:25.082Z,1017.44
2022-11-14T13:31:08.488Z,1017.37
2022-11-14T13:33:25.469Z,1017.34
2022-11-14T13:36:32.788Z,1017.29
2022-11-14T13:38:54.868Z,1017.25
2022-11-14T13:41:10.887Z,1017.25
2022-11-14T13:45:26.006Z,1017.23
2022-11-14T13:53:06.109Z,1017.15
2022-11-14T14:20:06.794Z,1017.19
2022-11-14T14:22:24.766Z,1017.19
2022-11-14T14:24:57.814Z,1017.20
2022-11-14T14:32:50.247Z,1017.07
2022-11-14T14:35:09.380Z,1017.04
2022-11-14T14:37:28.755Z,1017.07
2022-11-14T14:41:30.746Z,1017.02
2022-11-14T14:43:48.265Z,1016.99
2022-11-14T14:47:02.714Z,1017.00
2022-11-14T14:49:34.585Z,1016.95
2022-11-14T14:51:59.119Z,1016.93
2022-11-14T15:05:59.789Z,1016.76
2022-11-14T15:18:43.556Z,1016.65
2022-11-14T15:21:05.974Z,1016.70
2022-11-14T15:26:01.448Z,1016.60
2022-11-14T15:28:17.070Z,1016.61
2022-11-14T15:31:49.375Z,1016.63
2022-11-14T15:34:15.463Z,1016.61
2022-11-14T15:36:25.669Z,1016.60
2022-11-14T15:38:44.769Z,1016.59
2022-11-14T15:41:00.385Z,1016.61
2022-11-14T15:43:18.464Z,1016.58
2022-11-14T15:44:18.264Z,1016.61
2022-11-14T15:46:36.613Z,1016.61
2022-11-14T15:49:46.920Z,1016.65
2022-11-14T15:52:04.141Z,1016.59
2022-11-14T15:54:19.774Z,1016.56
2022-11-14T15:59:09.694Z,1016.57
2022-11-14T16:01:30.697Z,1016.50
2022-11-14T16:03:46.950Z,1016.53
2022-11-14T16:06:03.785Z,1016.56
2022-11-14T16:08:20.258Z,1016.46
2022-11-14T16:10:39.718Z,1016.52
2022-11-14T16:12:56.188Z,1016.57
2022-11-14T16:15:15.603Z,1016.57
2022-11-14T16:17:32.392Z,1016.57
2022-11-14T16:20:34.572Z,1016.53
2022-11-14T16:22:48.508Z,1016.50
2022-11-14T16:25:08.401Z,1016.50
2022-11-14T16:27:25.043Z,1016.52
2022-11-14T16:29:41.489Z,1016.52
2022-11-14T16:32:02.575Z,1016.54
2022-11-14T16:34:23.470Z,1016.58
2022-11-14T16:36:50.984Z,1016.58
2022-11-14T16:39:19.018Z,1016.63
2022-11-14T16:41:57.925Z,1016.66
2022-11-14T16:44:15.908Z,1016.60
2022-11-14T16:46:33.308Z,1016.52
2022-11-14T16:49:01.287Z,1016.46
2022-11-14T16:51:48.898Z,1016.37
2022-11-14T16:54:04.365Z,1016.40
2022-11-14T16:56:25.142Z,1016.41
2022-11-14T16:59:20.844Z,1016.42
2022-11-14T17:01:41.683Z,1016.42
2022-11-14T17:04:00.700Z,1016.53
2022-11-14T17:06:20.934Z,1016.56
2022-11-14T17:08:39.899Z,1016.62
2022-11-14T17:10:58.466Z,1016.64
2022-11-14T17:13:21.650Z,1016.61
2022-11-14T17:15:37.686Z,1016.62
2022-11-14T17:17:55.437Z,1016.64
2022-11-14T17:20:12.558Z,1016.56
2022-11-14T17:22:27.662Z,1016.58
2022-11-14T17:24:48.470Z,1016.53
2022-11-14T17:27:15.958Z,1016.57
2022-11-14T17:29:33.199Z,1016.49
2022-11-14T17:31:55.188Z,1016.45
2022-11-14T17:34:13.176Z,1016.45
2022-11-14T17:36:33.494Z,1016.43
2022-11-14T17:38:52.178Z,1016.43
2022-11-14T17:41:31.030Z,1016.37
2022-11-14T17:43:28.043Z,1016.40
2022-11-14T17:45:44.929Z,1016.48
2022-11-14T17:48:06.730Z,1016.45
2022-11-14T17:50:37.229Z,1016.45
2022-11-14T17:52:48.451Z,1016.46
2022-11-14T17:55:09.588Z,1016.45
2022-11-14T17:57:30.142Z,1016.38
2022-11-14T17:59:47.142Z,1016.33
2022-11-14T18:02:07.698Z,1016.29
2022-11-14T18:04:24.176Z,1016.26
2022-11-14T18:06:45.460Z,1016.25
2022-11-14T18:09:07.341Z,1016.28
2022-11-14T18:11:25.334Z,1016.27
2022-11-14T18:13:39.812Z,1016.21
2022-11-14T18:15:56.599Z,1016.19
2022-11-14T18:18:13.093Z,1016.13
2022-11-14T18:20:31.262Z,1016.12
2022-11-14T18:22:49.290Z,1016.07
2022-11-14T18:25:08.115Z,1016.05
2022-11-14T18:27:27.895Z,1015.99
2022-11-14T18:30:34.682Z,1016.01
2022-11-14T18:31:08.886Z,1015.98
2022-11-14T18:33:26.019Z,1015.95
2022-11-14T18:35:46.965Z,1015.90
2022-11-14T18:38:07.305Z,1015.92
2022-11-14T18:40:28.000Z,1015.95
2022-11-14T18:42:56.754Z,1015.89
2022-11-14T18:45:26.776Z,1015.85
2022-11-14T18:47:35.548Z,1015.79
2022-11-14T18:49:47.642Z,1015.79
2022-11-14T18:52:12.863Z,1015.75
2022-11-14T18:56:05.034Z,1015.77
2022-11-14T18:58:06.576Z,1015.78
2022-11-14T19:00:24.862Z,1015.74
2022-11-14T19:02:41.822Z,1015.76
2022-11-14T19:05:03.400Z,1015.78
2022-11-14T19:07:28.413Z,1015.77
2022-11-14T19:09:42.571Z,1015.80
2022-11-14T19:12:14.270Z,1015.77
2022-11-14T19:14:38.899Z,1015.76
2022-11-14T19:16:37.582Z,1015.69
2022-11-14T19:25:08.421Z,1015.82
2022-11-14T19:27:19.082Z,1015.77
2022-11-14T19:29:37.571Z,1015.70
2022-11-14T19:31:58.791Z,1015.65
2022-11-14T19:34:21.692Z,1015.64
2022-11-14T19:36:59.509Z,1015.67
2022-11-14T19:38:57.579Z,1015.55
2022-11-14T19:41:16.535Z,1015.48
2022-11-14T19:43:38.178Z,1015.48
2022-11-14T19:46:04.028Z,1015.40
2022-11-14T19:48:26.573Z,1015.36
2022-11-14T19:50:39.702Z,1015.31
2022-11-14T19:53:12.940Z,1015.34
2022-11-14T19:55:24.501Z,1015.32
2022-11-14T19:57:53.225Z,1015.36
2022-11-14T20:00:04.658Z,1015.26
2022-11-14T20:02:22.893Z,1015.35
2022-11-14T20:06:11.291Z,1015.38
2022-11-14T20:08:53.856Z,1015.40
2022-11-14T20:10:49.965Z,1015.42
2022-11-14T20:13:05.594Z,1015.46
2022-11-14T20:15:21.154Z,1015.43
2022-11-14T20:17:42.269Z,1015.40
2022-11-14T20:19:57.358Z,1015.36
2022-11-14T20:22:18.409Z,1015.36
2022-11-14T20:24:36.527Z,1015.35
2022-11-14T20:26:52.630Z,1015.42
2022-11-14T20:29:10.732Z,1015.38
2022-11-14T20:31:32.032Z,1015.40
2022-11-14T20:33:52.904Z,1015.37
2022-11-14T20:36:09.489Z,1015.39
2022-11-14T20:38:30.219Z,1015.40
2022-11-14T20:40:48.184Z,1015.42
2022-11-14T20:43:06.292Z,1015.38
2022-11-14T20:45:19.309Z,1015.23
2022-11-14T20:47:37.336Z,1015.31
2022-11-14T20:49:57.791Z,1015.38
2022-11-14T20:52:15.770Z,1015.39
2022-11-14T20:54:36.362Z,1015.36
2022-11-14T20:56:55.299Z,1015.39
2022-11-14T20:59:13.007Z,1015.44
2022-11-14T21:01:31.172Z,1015.45
2022-11-14T21:03:51.567Z,1015.44
2022-11-14T21:06:09.771Z,1015.44
2022-11-14T21:08:30.904Z,1015.41
2022-11-14T21:10:51.419Z,1015.35
2022-11-14T21:13:05.899Z,1015.30
2022-11-14T21:15:24.180Z,1015.27
2022-11-14T21:17:44.578Z,1015.21
2022-11-14T21:20:02.873Z,1015.22
2022-11-14T21:22:23.342Z,1015.24
2022-11-14T21:24:43.980Z,1015.16
2022-11-14T21:27:04.686Z,1015.13
2022-11-14T21:29:25.170Z,1015.15
2022-11-14T21:31:44.183Z,1015.15
2022-11-14T21:34:04.897Z,1015.14
2022-11-14T21:39:02.808Z,1015.11
2022-11-14T21:41:02.594Z,1015.15
2022-11-14T21:43:23.021Z,1015.14
2022-11-14T21:45:43.887Z,1015.13
2022-11-14T21:48:00.462Z,1015.15
2022-11-14T21:50:18.277Z,1015.12
2022-11-14T21:52:40.072Z,1015.11
2022-11-14T21:55:00.557Z,1015.08
2022-11-14T21:57:16.107Z,1015.09
2022-11-14T21:59:36.831Z,1015.02
2022-11-14T22:01:57.201Z,1015.01
2022-11-14T22:04:17.967Z,1014.95
2022-11-14T22:06:35.992Z,1014.93
2022-11-14T22:08:56.386Z,1014.92
2022-11-14T22:11:17.021Z,1014.97
2022-11-14T22:13:37.821Z,1014.95
2022-11-14T22:15:58.378Z,1014.95
2022-11-14T22:18:15.117Z,1014.88
2022-11-14T22:20:35.664Z,1014.82
2022-11-14T22:22:55.960Z,1014.87
2022-11-14T22:25:16.634Z,1014.82
2022-11-14T22:27:37.348Z,1014.84
2022-11-14T22:29:58.046Z,1014.91
2022-11-14T22:32:18.588Z,1014.85
2022-11-14T22:34:39.701Z,1014.86
2022-11-14T22:37:00.104Z,1014.88
2022-11-14T22:39:18.311Z,1014.82
2022-11-14T22:41:33.988Z,1014.78
2022-11-14T22:43:51.662Z,1014.85
2022-11-14T22:46:12.320Z,1014.81
2022-11-14T22:48:32.944Z,1014.78
2022-11-14T22:50:51.079Z,1014.74
2022-11-14T22:53:09.954Z,1014.73
2022-11-14T22:55:28.106Z,1014.78
2022-11-14T22:57:48.858Z,1014.89
2022-11-14T23:00:05.285Z,1014.88
2022-11-14T23:02:23.451Z,1014.87
2022-11-14T23:04:41.656Z,1014.84
2022-11-14T23:06:57.131Z,1014.85
2022-11-14T23:09:17.702Z,1014.87
2022-11-14T23:11:38.362Z,1014.83
2022-11-14T23:13:58.857Z,1014.83
2022-11-14T23:16:18.965Z,1014.76
2022-11-14T23:18:38.357Z,1014.71
2022-11-14T23:19:38.324Z,1014.65
2022-11-14T23:21:58.941Z,1014.73
2022-11-14T23:24:17.100Z,1014.70
2022-11-14T23:26:38.187Z,1014.62
2022-11-14T23:28:54.783Z,1014.64
2022-11-14T23:31:13.025Z,1014.65
2022-11-14T23:33:34.101Z,1014.49
2022-11-14T23:35:54.123Z,1014.47
2022-11-14T23:38:14.746Z,1014.46
2022-11-14T23:40:32.698Z,1014.48
2022-11-14T23:42:50.856Z,1014.48
2022-11-14T23:45:08.902Z,1014.50
2022-11-14T23:47:27.095Z,1014.47
2022-11-14T23:49:46.073Z,1014.44
2022-11-14T23:52:06.632Z,1014.41
2022-11-14T23:54:27.223Z,1014.43
2022-11-14T23:56:48.125Z,1014.37
2022-11-14T23:59:05.950Z,1014.32
